CheckWX is a tool to help pilots better visualize weather data.  It is not intended as a substitute for an official pre-flight weather briefing.

07:12:09 UTC

KORG METAR
Orange County Airport
Orange, Texas, USA
Current

17 mins ago

KORG 260655Z AUTO 18004KT 10SM BKN026 24/23 A3007 RMK AO2 T02410227
Observed
May-26 @ 06:55 UTC
Wind
  • 180° at 4 KTS
Visibility
10 SM
Flight Rules
MVFR
Cloud Levels
  • Broken at 2,600' AGL
Temperature
24°C / 75°F
Dewpoint
23°C / 73°F
Humidity
94%
Altimeter
30.07" Hg
Pressure
1018.32 hPa
Previous

37 mins ago

KORG 260635Z AUTO 17004KT 10SM BKN026 24/23 A3008 RMK AO2 T02410227
Observed
May-26 @ 06:35 UTC
Wind
  • 170° at 4 KTS
Visibility
10 SM
Flight Rules
MVFR
Cloud Levels
  • Broken at 2,600' AGL
Temperature
24°C / 75°F
Dewpoint
23°C / 73°F
Humidity
94%
Altimeter
30.08" Hg
Pressure
1018.62 hPa
Previous

57 mins ago

KORG 260615Z AUTO 18005KT 10SM BKN024 24/23 A3007 RMK AO2 T02420230
Observed
May-26 @ 06:15 UTC
Wind
  • 180° at 5 KTS
Visibility
10 SM
Flight Rules
MVFR
Cloud Levels
  • Broken at 2,400' AGL
Temperature
24°C / 75°F
Dewpoint
23°C / 73°F
Humidity
94%
Altimeter
30.07" Hg
Pressure
1018.32 hPa